createdAt,value
2023-04-16T00:00:04.952Z,61
2023-04-16T00:01:48.648Z,61
2023-04-16T00:03:32.351Z,60.9
2023-04-16T00:05:16.053Z,61
2023-04-16T00:06:59.759Z,61.1
2023-04-16T00:08:43.457Z,61
2023-04-16T00:10:27.158Z,61.1
2023-04-16T00:12:10.855Z,61
2023-04-16T00:13:54.567Z,61
2023-04-16T00:15:38.262Z,61.1
2023-04-16T00:17:21.972Z,61
2023-04-16T00:19:05.691Z,61.1
2023-04-16T00:20:49.373Z,61.1
2023-04-16T00:22:33.075Z,61
2023-04-16T00:24:16.787Z,61.1
2023-04-16T00:26:00.479Z,61
2023-04-16T00:27:44.188Z,61
2023-04-16T00:29:27.881Z,61
2023-04-16T00:31:11.596Z,61
2023-04-16T00:32:55.296Z,61.1
2023-04-16T00:34:38.993Z,61.1
2023-04-16T00:36:22.693Z,61.1
2023-04-16T00:38:06.401Z,61
2023-04-16T00:39:50.099Z,61.1
2023-04-16T00:41:33.806Z,61
2023-04-16T00:43:17.506Z,61.1
2023-04-16T00:45:01.219Z,61.1
2023-04-16T00:46:44.916Z,61
2023-04-16T00:48:28.610Z,61
2023-04-16T00:50:12.312Z,61.1
2023-04-16T00:51:56.022Z,61.1
2023-04-16T00:53:39.713Z,61.1
2023-04-16T00:55:23.417Z,61.1
2023-04-16T00:57:07.123Z,61.1
2023-04-16T00:58:50.822Z,61
2023-04-16T01:00:34.528Z,61.1
2023-04-16T01:02:18.229Z,61.1
2023-04-16T01:04:01.933Z,61.1
2023-04-16T01:05:45.639Z,61.1
2023-04-16T01:07:29.345Z,61.1
2023-04-16T01:09:13.044Z,61.1
2023-04-16T01:10:56.739Z,61.1
2023-04-16T01:12:40.444Z,61.1
2023-04-16T01:14:24.144Z,61.1
2023-04-16T01:16:07.862Z,61.1
2023-04-16T01:17:51.559Z,61.1
2023-04-16T01:19:35.275Z,61.1
2023-04-16T01:21:18.955Z,61.1
2023-04-16T01:23:02.670Z,61
2023-04-16T01:24:46.363Z,61.1
2023-04-16T01:26:30.061Z,61.1
2023-04-16T01:28:13.774Z,61.1
2023-04-16T01:29:57.470Z,61.1
2023-04-16T01:31:41.184Z,61.1
2023-04-16T01:35:08.588Z,61.1
2023-04-16T01:36:52.296Z,61.1
2023-04-16T01:38:35.987Z,61.1
2023-04-16T01:40:19.683Z,61.1
2023-04-16T01:42:03.388Z,61.1
2023-04-16T01:43:47.105Z,61
2023-04-16T01:45:30.811Z,61.1
2023-04-16T01:47:14.503Z,61
2023-04-16T01:48:58.210Z,61
2023-04-16T01:50:41.931Z,61.1
2023-04-16T01:52:25.608Z,61.1
2023-04-16T01:54:09.309Z,61.1
2023-04-16T01:55:53.024Z,61.1
2023-04-16T01:57:36.724Z,61.1
2023-04-16T01:59:20.416Z,61.1
2023-04-16T02:01:04.120Z,61.1
2023-04-16T02:02:47.834Z,61.1
2023-04-16T02:04:31.527Z,61.1
2023-04-16T02:06:15.235Z,61.1
2023-04-16T02:07:58.939Z,61
2023-04-16T02:09:42.657Z,61.1
2023-04-16T02:11:26.343Z,61
2023-04-16T02:13:10.032Z,61.1
2023-04-16T02:14:53.743Z,61.1
2023-04-16T02:16:37.444Z,61.1
2023-04-16T02:18:21.146Z,61.1
2023-04-16T02:20:04.853Z,61.1
2023-04-16T02:21:48.553Z,61
2023-04-16T02:23:32.257Z,61
2023-04-16T02:25:15.969Z,61
2023-04-16T02:26:59.660Z,61
2023-04-16T02:28:43.367Z,61.1
2023-04-16T02:30:27.069Z,61.1
2023-04-16T02:32:10.768Z,61
2023-04-16T02:33:54.477Z,61
2023-04-16T02:35:38.162Z,61
2023-04-16T02:37:21.876Z,61.1
2023-04-16T02:39:05.591Z,61.1
2023-04-16T02:40:49.281Z,61
2023-04-16T02:42:32.981Z,61.1
2023-04-16T02:44:16.685Z,61.1
2023-04-16T02:46:00.384Z,61.1
2023-04-16T02:47:44.092Z,61
2023-04-16T02:49:27.805Z,61
2023-04-16T02:51:11.497Z,61
2023-04-16T02:52:55.209Z,61
2023-04-16T02:54:38.899Z,61
2023-04-16T02:56:22.612Z,61
2023-04-16T02:58:06.307Z,61
2023-04-16T02:59:50.000Z,61
2023-04-16T03:01:33.718Z,61
2023-04-16T03:03:17.421Z,61.1
2023-04-16T03:05:01.122Z,61
2023-04-16T03:06:44.825Z,61
2023-04-16T03:08:28.522Z,61
2023-04-16T03:10:12.235Z,61.1
2023-04-16T03:11:55.940Z,61.1
2023-04-16T03:13:39.630Z,61.1
2023-04-16T03:15:23.335Z,61.1
2023-04-16T03:17:07.042Z,61.1
2023-04-16T03:18:50.740Z,61.1
2023-04-16T03:20:34.441Z,61.1
2023-04-16T03:22:18.140Z,61
2023-04-16T03:24:01.854Z,61.1
2023-04-16T03:25:45.550Z,61.1
2023-04-16T03:27:29.250Z,61.1
2023-04-16T03:29:12.951Z,61
2023-04-16T03:30:56.658Z,61
2023-04-16T03:32:40.360Z,61.1
2023-04-16T03:34:24.083Z,61
2023-04-16T03:36:07.754Z,61.1
2023-04-16T03:37:51.474Z,61
2023-04-16T03:39:35.170Z,61
2023-04-16T03:41:18.870Z,61
2023-04-16T03:43:02.573Z,61
2023-04-16T03:46:29.978Z,61.1
2023-04-16T03:48:13.684Z,61.1
2023-04-16T03:49:57.377Z,61
2023-04-16T03:51:41.083Z,61
2023-04-16T03:53:24.788Z,61
2023-04-16T03:55:08.490Z,61
2023-04-16T03:56:52.192Z,61
2023-04-16T03:58:35.903Z,61
2023-04-16T04:00:19.592Z,61
2023-04-16T04:02:03.307Z,61
2023-04-16T04:03:47.002Z,61
2023-04-16T04:05:30.702Z,61
2023-04-16T04:07:14.411Z,61
2023-04-16T04:08:58.096Z,61
2023-04-16T04:10:41.830Z,61
2023-04-16T04:12:25.518Z,61
2023-04-16T04:14:09.216Z,61
2023-04-16T04:15:52.918Z,61
2023-04-16T04:17:36.642Z,61
2023-04-16T04:19:20.327Z,61
2023-04-16T04:21:04.039Z,61
2023-04-16T04:22:47.724Z,61
2023-04-16T04:24:31.443Z,61
2023-04-16T04:26:15.141Z,61
2023-04-16T04:27:58.839Z,61
2023-04-16T04:29:42.539Z,61
2023-04-16T04:31:26.250Z,61
2023-04-16T04:33:09.945Z,61
2023-04-16T04:34:53.655Z,61
2023-04-16T04:36:37.363Z,61
2023-04-16T04:38:21.062Z,61
2023-04-16T04:40:04.759Z,61
2023-04-16T04:41:48.450Z,61
2023-04-16T04:43:32.159Z,61
2023-04-16T04:45:15.878Z,61
2023-04-16T04:46:59.557Z,61
2023-04-16T04:48:43.273Z,61
2023-04-16T04:50:26.974Z,61
2023-04-16T04:52:10.671Z,61
2023-04-16T04:53:54.373Z,61
2023-04-16T04:55:38.095Z,61
2023-04-16T04:57:21.807Z,61
2023-04-16T04:59:05.488Z,61
2023-04-16T05:00:49.182Z,61
2023-04-16T05:02:32.881Z,61
2023-04-16T05:06:00.325Z,61
2023-04-16T05:07:43.993Z,61
2023-04-16T05:09:27.693Z,61
2023-04-16T05:11:11.407Z,61
2023-04-16T05:12:55.113Z,61
2023-04-16T05:14:38.804Z,61
2023-04-16T05:16:22.509Z,61
2023-04-16T05:18:06.212Z,61
2023-04-16T05:19:49.920Z,61
2023-04-16T05:21:33.623Z,61
2023-04-16T05:23:17.315Z,61
2023-04-16T05:25:01.036Z,61
2023-04-16T05:26:44.781Z,61
2023-04-16T05:28:28.423Z,61
2023-04-16T05:30:12.135Z,61
2023-04-16T05:31:55.829Z,61
2023-04-16T05:33:39.547Z,61
2023-04-16T05:35:23.246Z,61
2023-04-16T05:37:06.943Z,61
2023-04-16T05:38:50.651Z,61
2023-04-16T05:40:34.349Z,61
2023-04-16T05:42:18.046Z,60.9
2023-04-16T05:44:01.760Z,61
2023-04-16T05:45:45.489Z,61
2023-04-16T05:47:29.156Z,61
2023-04-16T05:49:12.862Z,61
2023-04-16T05:50:56.564Z,61
2023-04-16T05:52:40.260Z,61
2023-04-16T05:54:23.969Z,61
2023-04-16T05:56:07.664Z,61
2023-04-16T05:57:51.451Z,61
2023-04-16T05:59:35.084Z,61
2023-04-16T06:01:18.787Z,61
2023-04-16T06:03:02.526Z,61
2023-04-16T06:04:46.186Z,61
2023-04-16T06:06:29.891Z,61
2023-04-16T06:08:13.603Z,61
2023-04-16T06:09:57.300Z,61
2023-04-16T06:11:41.000Z,61
2023-04-16T06:13:24.731Z,61
2023-04-16T06:15:08.392Z,61
2023-04-16T06:16:52.105Z,61
2023-04-16T06:18:35.808Z,61
2023-04-16T06:20:19.517Z,61
2023-04-16T06:22:03.224Z,61
2023-04-16T06:23:46.929Z,61
2023-04-16T06:25:30.610Z,61
2023-04-16T06:27:14.336Z,61
2023-04-16T06:28:58.043Z,61
2023-04-16T06:30:41.736Z,61
2023-04-16T06:32:25.437Z,61
2023-04-16T06:34:09.176Z,61
2023-04-16T06:35:52.842Z,61
2023-04-16T06:37:36.543Z,61
2023-04-16T06:39:20.249Z,61
2023-04-16T06:41:03.956Z,61
2023-04-16T06:42:47.676Z,61
2023-04-16T06:44:31.362Z,61
2023-04-16T06:46:15.057Z,61
2023-04-16T06:47:58.756Z,60.9
2023-04-16T06:49:42.513Z,61.2
2023-04-16T06:51:26.160Z,61.4
2023-04-16T06:53:09.862Z,61.4
2023-04-16T06:54:53.567Z,61.4
2023-04-16T06:56:37.264Z,61.3
2023-04-16T06:58:20.971Z,61.2
2023-04-16T07:00:04.672Z,61.2
2023-04-16T07:01:48.370Z,61.2
2023-04-16T07:03:32.096Z,61.2
2023-04-16T07:05:15.782Z,61.2
2023-04-16T07:06:59.473Z,61.2
2023-04-16T07:08:43.177Z,61.1
2023-04-16T07:10:26.890Z,61.1
2023-04-16T07:12:10.598Z,61.1
2023-04-16T07:13:54.384Z,61.2
2023-04-16T07:15:37.984Z,61.2
2023-04-16T07:17:21.689Z,61.2
2023-04-16T07:19:05.405Z,61.2
2023-04-16T07:20:49.103Z,61.2
2023-04-16T07:22:32.915Z,61.1
2023-04-16T07:24:16.560Z,61
2023-04-16T07:26:00.212Z,60.9
2023-04-16T07:27:43.987Z,60.9
2023-04-16T07:29:27.614Z,60.9
2023-04-16T07:31:11.342Z,60.9
2023-04-16T07:32:55.022Z,60.9
2023-04-16T07:34:38.724Z,61.1
2023-04-16T07:36:22.424Z,61.1
2023-04-16T07:38:06.142Z,61.1
2023-04-16T07:39:49.828Z,61.1
2023-04-16T07:41:33.535Z,61
2023-04-16T07:43:17.230Z,61
2023-04-16T07:45:00.993Z,61
2023-04-16T07:46:44.643Z,61
2023-04-16T07:48:28.346Z,61
2023-04-16T07:50:12.060Z,60.9
2023-04-16T07:51:55.770Z,60.9
2023-04-16T07:53:39.451Z,61
2023-04-16T07:57:06.849Z,60.9
2023-04-16T07:58:50.555Z,60.9
2023-04-16T08:00:34.262Z,60.9
2023-04-16T08:02:17.954Z,60.9
2023-04-16T08:04:01.660Z,62.8
2023-04-16T08:05:45.369Z,63.4
2023-04-16T08:07:29.082Z,63.4
2023-04-16T08:09:12.770Z,63.4
2023-04-16T08:10:56.478Z,63.7
2023-04-16T08:12:40.181Z,63.5
2023-04-16T08:14:23.877Z,63.3
2023-04-16T08:16:07.578Z,63.1
2023-04-16T08:17:51.294Z,63.2
2023-04-16T08:19:34.996Z,63.3
2023-04-16T08:21:18.691Z,63.3
2023-04-16T08:23:02.417Z,63.2
2023-04-16T08:24:46.104Z,63.2
2023-04-16T08:26:29.791Z,63.2
2023-04-16T08:28:13.500Z,63.2
2023-04-16T08:29:57.211Z,63.2
2023-04-16T08:31:40.903Z,63.2
2023-04-16T08:33:24.618Z,63.3
2023-04-16T08:35:08.300Z,63.2
2023-04-16T08:36:52.015Z,63.2
2023-04-16T08:38:35.734Z,63.2
2023-04-16T08:40:19.443Z,63.3
2023-04-16T08:42:03.118Z,63.3
2023-04-16T08:43:46.815Z,63.3
2023-04-16T08:45:30.526Z,63.2
2023-04-16T08:47:14.301Z,63.2
2023-04-16T08:48:57.914Z,63.1
2023-04-16T08:50:41.617Z,63.1
2023-04-16T08:52:25.336Z,63.2
2023-04-16T08:54:09.026Z,63.1
2023-04-16T08:55:52.777Z,63.1
2023-04-16T08:57:36.427Z,63.1
2023-04-16T08:59:20.134Z,63.1
2023-04-16T09:01:03.841Z,63.1
2023-04-16T09:02:47.532Z,63.1
2023-04-16T09:04:31.250Z,63.1
2023-04-16T09:06:14.943Z,63.1
2023-04-16T09:07:58.635Z,63
2023-04-16T09:09:42.350Z,63
2023-04-16T09:11:26.043Z,63
2023-04-16T09:13:09.754Z,63
2023-04-16T09:14:53.459Z,63
2023-04-16T09:16:37.164Z,62.8
2023-04-16T09:20:04.565Z,62.8
2023-04-16T09:21:48.259Z,62.8
2023-04-16T09:23:31.972Z,62.8
2023-04-16T09:25:15.669Z,62.7
2023-04-16T09:26:59.393Z,62.7
2023-04-16T09:28:43.082Z,62.6
2023-04-16T09:30:26.773Z,62.6
2023-04-16T09:32:10.481Z,62.6
2023-04-16T09:33:54.191Z,62.5
2023-04-16T09:35:37.883Z,62.5
2023-04-16T09:37:21.588Z,62.5
2023-04-16T09:39:05.297Z,62.4
2023-04-16T09:40:49.002Z,62.4
2023-04-16T09:42:32.727Z,62.4
2023-04-16T09:44:16.396Z,62.3
2023-04-16T09:46:00.114Z,62.3
2023-04-16T09:47:43.979Z,62.3
2023-04-16T09:49:27.513Z,63
2023-04-16T09:51:11.218Z,63.5
2023-04-16T09:52:54.918Z,62.9
2023-04-16T09:54:38.621Z,62.6
2023-04-16T09:56:22.331Z,62.9
2023-04-16T09:58:06.021Z,63
2023-04-16T09:59:49.727Z,63
2023-04-16T10:01:33.434Z,63.1
2023-04-16T10:03:17.123Z,63.1
2023-04-16T10:05:00.836Z,63.1
2023-04-16T10:06:44.542Z,63.1
2023-04-16T10:08:28.232Z,63.1
2023-04-16T10:10:11.958Z,63
2023-04-16T10:11:55.733Z,63.1
2023-04-16T10:13:39.348Z,63.1
2023-04-16T10:15:23.056Z,63
2023-04-16T10:17:06.751Z,63.1
2023-04-16T10:18:50.457Z,63.1
2023-04-16T10:20:34.167Z,63
2023-04-16T10:22:17.866Z,63.1
2023-04-16T10:24:01.585Z,63
2023-04-16T10:25:45.295Z,63
2023-04-16T10:27:28.965Z,62.9
2023-04-16T10:29:12.692Z,62.9
2023-04-16T10:30:56.379Z,62.9
2023-04-16T10:32:40.076Z,62.9
2023-04-16T10:34:23.776Z,62.9
2023-04-16T10:36:07.478Z,62.9
2023-04-16T10:37:51.315Z,62.9
2023-04-16T10:39:34.958Z,62.9
2023-04-16T10:41:18.620Z,62.8
2023-04-16T10:43:02.295Z,62.8
2023-04-16T10:44:46.105Z,62.8
2023-04-16T10:46:29.709Z,62.8
2023-04-16T10:48:13.415Z,62.7
2023-04-16T10:49:57.124Z,62.7
2023-04-16T10:51:40.896Z,62.6
2023-04-16T10:53:24.534Z,62.6
2023-04-16T10:56:51.928Z,62.5
2023-04-16T10:58:35.610Z,62.7
2023-04-16T11:00:19.318Z,62.5
2023-04-16T11:02:03.027Z,62.5
2023-04-16T11:03:46.733Z,62.4
2023-04-16T11:05:30.434Z,62.7
2023-04-16T11:07:14.130Z,64.2
2023-04-16T11:08:57.869Z,64.4
2023-04-16T11:10:41.534Z,64.4
2023-04-16T11:12:25.259Z,64.4
2023-04-16T11:14:08.937Z,64.4
2023-04-16T11:15:52.643Z,64.4
2023-04-16T11:17:36.358Z,64.4
2023-04-16T11:19:20.047Z,64.5
2023-04-16T11:21:03.743Z,64.5
2023-04-16T11:22:47.451Z,64.4
2023-04-16T11:24:31.143Z,64.2
2023-04-16T11:26:14.849Z,64.3
2023-04-16T11:27:58.558Z,64.3
2023-04-16T11:29:42.270Z,64.2
2023-04-16T11:31:25.963Z,64.1
2023-04-16T11:33:09.847Z,64
2023-04-16T11:34:53.372Z,64
2023-04-16T11:36:37.071Z,64
2023-04-16T11:38:20.772Z,63.9
2023-04-16T11:40:04.479Z,63.9
2023-04-16T11:41:48.287Z,63.8
2023-04-16T11:43:31.879Z,63.9
2023-04-16T11:45:15.579Z,64.3
2023-04-16T11:46:59.287Z,64.3
2023-04-16T11:48:42.993Z,64.5
2023-04-16T11:50:26.685Z,64.4
2023-04-16T11:52:10.455Z,64.2
2023-04-16T11:53:54.103Z,64.1
2023-04-16T11:55:37.802Z,64.1
2023-04-16T11:57:21.518Z,64
2023-04-16T11:59:05.196Z,63.9
2023-04-16T12:00:48.912Z,63.8
2023-04-16T12:02:32.620Z,63.7
2023-04-16T12:04:16.306Z,63.7
2023-04-16T12:06:00.027Z,63.6
2023-04-16T12:07:43.738Z,63.5
2023-04-16T12:09:27.448Z,63.5
2023-04-16T12:11:11.127Z,63.5
2023-04-16T12:12:54.830Z,63.4
2023-04-16T12:14:38.526Z,63.4
2023-04-16T12:16:22.310Z,63.3
2023-04-16T12:18:05.931Z,63.3
2023-04-16T12:19:49.636Z,63.3
2023-04-16T12:21:33.346Z,63.2
2023-04-16T12:23:17.035Z,63.2
2023-04-16T12:25:00.789Z,63.2
2023-04-16T12:26:44.451Z,63.2
2023-04-16T12:28:28.152Z,63.2
2023-04-16T12:30:11.850Z,63.2
2023-04-16T12:31:55.560Z,63.1
2023-04-16T12:33:39.269Z,63.1
2023-04-16T12:35:22.964Z,63
2023-04-16T12:37:06.653Z,63
2023-04-16T12:38:50.365Z,63
2023-04-16T12:40:34.071Z,63
2023-04-16T12:42:17.772Z,63
2023-04-16T12:44:01.479Z,63
2023-04-16T12:45:45.225Z,62.9
2023-04-16T12:47:28.875Z,62.9
2023-04-16T12:49:12.587Z,62.9
2023-04-16T12:50:56.293Z,62.9
2023-04-16T12:52:39.993Z,62.8
2023-04-16T12:54:23.709Z,62.8
2023-04-16T12:56:07.395Z,62.8
2023-04-16T12:57:51.143Z,62.8
2023-04-16T12:59:34.796Z,62.8
2023-04-16T13:01:18.493Z,62.8
2023-04-16T13:03:02.199Z,62.7
2023-04-16T13:04:45.898Z,62.8
2023-04-16T13:06:29.620Z,62.7
2023-04-16T13:08:13.337Z,62.7
2023-04-16T13:09:57.016Z,62.7
2023-04-16T13:11:40.713Z,62.6
2023-04-16T13:13:24.412Z,62.6
2023-04-16T13:15:08.120Z,62.6
2023-04-16T13:16:51.825Z,62.6
2023-04-16T13:18:35.531Z,62.6
2023-04-16T13:20:19.230Z,62.6
2023-04-16T13:22:02.989Z,62.6
2023-04-16T13:23:46.633Z,62.5
2023-04-16T13:25:30.337Z,62.5
2023-04-16T13:27:14.082Z,62.5
2023-04-16T13:28:57.763Z,62.5
2023-04-16T13:30:41.456Z,62.5
2023-04-16T13:32:25.163Z,62.5
2023-04-16T13:34:08.921Z,62.5
2023-04-16T13:35:52.634Z,62.5
2023-04-16T13:37:36.294Z,62.4
2023-04-16T13:39:20.116Z,62.4
2023-04-16T13:41:03.676Z,62.4
2023-04-16T13:42:47.472Z,62.3
2023-04-16T13:44:31.072Z,62.4
2023-04-16T13:46:14.935Z,62.4
2023-04-16T13:47:58.474Z,62.4
2023-04-16T13:49:42.165Z,62.3
2023-04-16T13:51:25.860Z,62.4
2023-04-16T13:53:09.576Z,62.3
2023-04-16T13:54:53.253Z,62.3
2023-04-16T13:56:36.975Z,62.3
2023-04-16T13:58:20.705Z,62.3
2023-04-16T14:00:04.368Z,62.3
2023-04-16T14:01:48.104Z,62.2
2023-04-16T14:03:31.785Z,62.2
2023-04-16T14:05:15.490Z,62.2
2023-04-16T14:06:59.200Z,62.2
2023-04-16T14:08:42.880Z,62.3
2023-04-16T14:10:26.584Z,62.2
2023-04-16T14:12:10.303Z,62.2
2023-04-16T14:13:53.982Z,62.2
2023-04-16T14:15:37.692Z,62.2
2023-04-16T14:17:21.393Z,62.2
2023-04-16T14:19:05.090Z,62.1
2023-04-16T14:20:48.806Z,62.1
2023-04-16T14:22:32.499Z,62.1
2023-04-16T14:24:16.199Z,62.1
2023-04-16T14:25:59.910Z,62.1
2023-04-16T14:27:43.655Z,62.1
2023-04-16T14:29:27.327Z,62.1
2023-04-16T14:31:11.034Z,62.1
2023-04-16T14:32:54.724Z,62.1
2023-04-16T14:34:38.423Z,62
2023-04-16T14:36:22.143Z,62
2023-04-16T14:38:05.826Z,62
2023-04-16T14:39:49.525Z,62
2023-04-16T14:41:33.227Z,62
2023-04-16T14:43:16.934Z,62
2023-04-16T14:45:00.643Z,62
2023-04-16T14:46:44.336Z,62
2023-04-16T14:48:28.085Z,62
2023-04-16T14:50:11.746Z,62
2023-04-16T14:51:55.450Z,62
2023-04-16T14:53:39.165Z,62
2023-04-16T14:55:22.850Z,62
2023-04-16T14:57:06.561Z,62
2023-04-16T14:58:50.259Z,62
2023-04-16T15:00:33.961Z,62
2023-04-16T15:02:17.696Z,61.9
2023-04-16T15:04:01.355Z,61.9
2023-04-16T15:05:45.059Z,61.9
2023-04-16T15:07:28.770Z,61.9
2023-04-16T15:09:12.472Z,61.9
2023-04-16T15:10:56.176Z,61.9
2023-04-16T15:12:39.927Z,61.9
2023-04-16T15:14:23.586Z,61.9
2023-04-16T15:16:07.293Z,61.9
2023-04-16T15:17:50.997Z,61.9
2023-04-16T15:19:34.686Z,61.9
2023-04-16T15:21:18.402Z,61.9
2023-04-16T15:23:02.105Z,61.9
2023-04-16T15:24:45.826Z,61.9
2023-04-16T15:26:29.499Z,61.8
2023-04-16T15:28:13.200Z,61.8
2023-04-16T15:29:56.958Z,61.8
2023-04-16T15:31:40.606Z,61.8
2023-04-16T15:33:24.322Z,61.8
2023-04-16T15:35:08.018Z,61.8
2023-04-16T15:36:51.717Z,61.7
2023-04-16T15:38:35.419Z,61.8
2023-04-16T15:40:19.148Z,61.7
2023-04-16T15:42:02.819Z,61.7
2023-04-16T15:43:46.525Z,61.7
2023-04-16T15:45:30.222Z,61.7
2023-04-16T15:47:13.933Z,61.7
2023-04-16T15:48:57.622Z,61.7
2023-04-16T15:50:41.337Z,61.7
2023-04-16T15:52:25.048Z,61.7
2023-04-16T15:54:08.830Z,61.6
2023-04-16T15:55:52.450Z,61.6
2023-04-16T15:57:36.148Z,61.6
2023-04-16T15:59:19.852Z,61.6
2023-04-16T16:01:03.565Z,61.6
2023-04-16T16:02:47.268Z,61.6
2023-04-16T16:04:30.979Z,61.6
2023-04-16T16:06:14.668Z,61.6
2023-04-16T16:07:58.368Z,61.6
2023-04-16T16:09:42.072Z,61.6
2023-04-16T16:11:25.769Z,61.6
2023-04-16T16:13:09.474Z,61.6
2023-04-16T16:14:53.176Z,61.6
2023-04-16T16:16:36.931Z,61.6
2023-04-16T16:18:20.581Z,61.6
2023-04-16T16:20:04.289Z,61.6
2023-04-16T16:21:47.982Z,61.6
2023-04-16T16:23:31.695Z,61.5
2023-04-16T16:25:15.399Z,61.5
2023-04-16T16:26:59.088Z,61.5
2023-04-16T16:28:42.793Z,61.5
2023-04-16T16:30:26.498Z,61.5
2023-04-16T16:32:10.198Z,61.5
2023-04-16T16:33:53.900Z,61.5
2023-04-16T16:35:37.607Z,61.5
2023-04-16T16:37:21.303Z,61.5
2023-04-16T16:39:05.008Z,61.5
2023-04-16T16:40:48.705Z,61.5
2023-04-16T16:42:32.423Z,61.5
2023-04-16T16:44:16.107Z,61.5
2023-04-16T16:45:59.825Z,61.5
2023-04-16T16:47:43.524Z,61.5
2023-04-16T16:49:27.244Z,61.4
2023-04-16T16:51:10.923Z,61.4
2023-04-16T16:52:54.634Z,61.4
2023-04-16T16:54:38.335Z,61.4
2023-04-16T16:56:22.049Z,61.4
2023-04-16T16:58:05.734Z,61.4
2023-04-16T16:59:49.443Z,61.4
2023-04-16T17:01:33.143Z,61.4
2023-04-16T17:03:16.848Z,61.4
2023-04-16T17:05:00.551Z,61.4
2023-04-16T17:06:44.273Z,61.4
2023-04-16T17:08:27.949Z,61.4
2023-04-16T17:10:11.658Z,61.4
2023-04-16T17:11:55.356Z,61.4
2023-04-16T17:13:39.076Z,61.3
2023-04-16T17:15:22.831Z,61.4
2023-04-16T17:17:06.461Z,61.3
2023-04-16T17:18:50.166Z,61.3
2023-04-16T17:20:33.880Z,61.3
2023-04-16T17:22:17.639Z,61.3
2023-04-16T17:24:01.281Z,61.3
2023-04-16T17:25:44.971Z,61.3
2023-04-16T17:27:28.684Z,61.3
2023-04-16T17:29:12.390Z,61.3
2023-04-16T17:30:56.087Z,61.3
2023-04-16T17:32:39.843Z,61.3
2023-04-16T17:34:23.500Z,61.3
2023-04-16T17:36:07.197Z,61.3
2023-04-16T17:37:50.899Z,61.3
2023-04-16T17:39:34.601Z,61.3
2023-04-16T17:41:18.303Z,61.2
2023-04-16T17:43:02.016Z,61.2
2023-04-16T17:44:45.695Z,61.3
2023-04-16T17:46:29.422Z,61.3
2023-04-16T17:48:13.117Z,61.3
2023-04-16T17:49:56.852Z,61.3
2023-04-16T17:51:40.512Z,61.3
2023-04-16T17:53:24.228Z,61.3
2023-04-16T17:55:07.919Z,61.4
2023-04-16T17:56:51.631Z,61.5
2023-04-16T17:58:35.323Z,61.6
2023-04-16T18:00:19.030Z,61.6
2023-04-16T18:02:02.734Z,61.7
2023-04-16T18:03:46.428Z,61.8
2023-04-16T18:05:30.138Z,61.8
2023-04-16T18:07:13.863Z,61.8
2023-04-16T18:08:57.540Z,61.9
2023-04-16T18:10:41.250Z,61.9
2023-04-16T18:12:24.939Z,61.9
2023-04-16T18:14:08.665Z,62
2023-04-16T18:15:52.356Z,62
2023-04-16T18:17:36.048Z,62.1
2023-04-16T18:19:19.772Z,62.3
2023-04-16T18:21:03.463Z,62.4
2023-04-16T18:22:47.154Z,62.4
2023-04-16T18:24:30.853Z,62.5
2023-04-16T18:26:14.559Z,62.7
2023-04-16T18:27:58.260Z,63
2023-04-16T18:29:41.976Z,62.8
2023-04-16T18:31:25.670Z,63
2023-04-16T18:33:09.366Z,63.2
2023-04-16T18:34:53.138Z,63.5
2023-04-16T18:36:36.778Z,63.6
2023-04-16T18:38:20.481Z,63.7
2023-04-16T18:40:04.173Z,63.8
2023-04-16T18:41:47.885Z,63.6
2023-04-16T18:43:31.585Z,63.7
2023-04-16T18:45:15.286Z,63.8
2023-04-16T18:46:59.020Z,63.8
2023-04-16T18:48:42.693Z,63.6
2023-04-16T18:50:26.387Z,63.6
2023-04-16T18:52:10.087Z,63.6
2023-04-16T18:53:53.838Z,63.5
2023-04-16T18:55:37.503Z,63.6
2023-04-16T18:57:21.228Z,63.7
2023-04-16T18:59:04.906Z,63.6
2023-04-16T19:00:48.602Z,63.5
2023-04-16T19:02:32.325Z,63.5
2023-04-16T19:04:16.013Z,63.4
2023-04-16T19:05:59.740Z,63.5
2023-04-16T19:07:43.433Z,63.4
2023-04-16T19:09:27.196Z,63.4
2023-04-16T19:11:10.824Z,63.4
2023-04-16T19:12:54.520Z,63.4
2023-04-16T19:14:38.237Z,63.3
2023-04-16T19:16:21.943Z,63.3
2023-04-16T19:18:05.644Z,63.3
2023-04-16T19:19:49.420Z,63.3
2023-04-16T19:21:33.041Z,63.2
2023-04-16T19:23:16.798Z,63.2
2023-04-16T19:25:00.465Z,63.2
2023-04-16T19:26:44.145Z,63.1
2023-04-16T19:28:27.848Z,63.2
2023-04-16T19:30:11.559Z,63.2
2023-04-16T19:31:55.253Z,63.1
2023-04-16T19:33:38.958Z,63.1
2023-04-16T19:35:22.737Z,63.1
2023-04-16T19:37:06.387Z,63
2023-04-16T19:38:50.066Z,63
2023-04-16T19:40:33.771Z,63
2023-04-16T19:42:17.502Z,63
2023-04-16T19:44:01.197Z,63
2023-04-16T19:45:44.869Z,63
2023-04-16T19:47:28.575Z,62.9
2023-04-16T19:49:12.350Z,62.9
2023-04-16T19:50:55.980Z,62.8
2023-04-16T19:52:39.826Z,62.7
2023-04-16T19:56:07.105Z,62.6
2023-04-16T19:57:50.820Z,62.5
2023-04-16T19:59:34.506Z,62.6
2023-04-16T20:01:18.203Z,62.6
2023-04-16T20:03:01.912Z,62.6
2023-04-16T20:04:45.668Z,62.7
2023-04-16T20:06:29.328Z,62.7
2023-04-16T20:08:13.008Z,62.7
2023-04-16T20:11:40.416Z,62.7
2023-04-16T20:13:24.117Z,62.7
2023-04-16T20:15:07.822Z,62.7
2023-04-16T20:16:51.526Z,62.7
2023-04-16T20:18:35.220Z,62.7
2023-04-16T20:20:19.001Z,62.7
2023-04-16T20:22:02.627Z,62.8
2023-04-16T20:23:46.329Z,62.8
2023-04-16T20:25:30.035Z,62.8
2023-04-16T20:27:13.730Z,62.8
2023-04-16T20:28:57.429Z,62.7
2023-04-16T20:30:41.142Z,62.6
2023-04-16T20:32:24.865Z,62.5
2023-04-16T20:34:08.564Z,62.5
2023-04-16T20:35:52.245Z,62.4
2023-04-16T20:37:35.936Z,62.5
2023-04-16T20:39:19.649Z,62.5
2023-04-16T20:41:03.414Z,62.5
2023-04-16T20:42:47.075Z,62.5
2023-04-16T20:44:30.798Z,62.5
2023-04-16T20:46:14.557Z,62.5
2023-04-16T20:47:58.202Z,62.5
2023-04-16T20:49:41.884Z,62.5
2023-04-16T20:51:25.583Z,62.5
2023-04-16T20:53:09.272Z,62.5
2023-04-16T20:54:53.020Z,62.5
2023-04-16T20:56:36.697Z,62.5
2023-04-16T20:58:20.386Z,62.4
2023-04-16T21:00:04.093Z,62.4
2023-04-16T21:01:47.795Z,62.3
2023-04-16T21:03:31.666Z,62.3
2023-04-16T21:05:15.255Z,62.3
2023-04-16T21:06:58.898Z,62.3
2023-04-16T21:08:42.602Z,62.3
2023-04-16T21:10:26.390Z,62.2
2023-04-16T21:12:10.014Z,62.2
2023-04-16T21:13:53.705Z,62.2
2023-04-16T21:15:37.412Z,62.1
2023-04-16T21:17:21.123Z,62.1
2023-04-16T21:19:04.806Z,62.1
2023-04-16T21:20:48.521Z,62.1
2023-04-16T21:22:32.236Z,62.1
2023-04-16T21:24:15.946Z,62.1
2023-04-16T21:25:59.637Z,62
2023-04-16T21:27:43.326Z,62
2023-04-16T21:29:27.040Z,62
2023-04-16T21:31:10.736Z,62
2023-04-16T21:32:54.431Z,62
2023-04-16T21:34:38.152Z,62.2
2023-04-16T21:36:21.846Z,62.5
2023-04-16T21:39:49.251Z,62.5
2023-04-16T21:41:32.961Z,62.6
2023-04-16T21:43:16.649Z,62.7
2023-04-16T21:45:00.365Z,62.6
2023-04-16T21:46:44.070Z,62.6
2023-04-16T21:48:27.773Z,62.6
2023-04-16T21:50:11.461Z,62.6
2023-04-16T21:51:55.171Z,62.6
2023-04-16T21:53:38.870Z,62.6
2023-04-16T21:55:22.593Z,62.5
2023-04-16T21:57:06.280Z,62.6
2023-04-16T21:58:49.982Z,62.5
2023-04-16T22:00:33.684Z,62.5
2023-04-16T22:02:17.390Z,62.5
2023-04-16T22:04:01.092Z,62.5
2023-04-16T22:05:44.795Z,62.5
2023-04-16T22:07:28.499Z,62.6
2023-04-16T22:09:12.250Z,62.5
2023-04-16T22:10:55.903Z,62.6
2023-04-16T22:12:39.610Z,62.6
2023-04-16T22:14:23.309Z,62.5
2023-04-16T22:16:07.003Z,62.5
2023-04-16T22:17:50.752Z,62.5
2023-04-16T22:19:34.412Z,62.5
2023-04-16T22:21:18.104Z,62.5
2023-04-16T22:23:01.818Z,62.5
2023-04-16T22:24:45.532Z,62.4
2023-04-16T22:26:29.228Z,62.5
2023-04-16T22:28:12.938Z,62.5
2023-04-16T22:29:56.726Z,62.5
2023-04-16T22:31:40.344Z,62.4
2023-04-16T22:33:24.037Z,62.4
2023-04-16T22:35:07.729Z,62.5
2023-04-16T22:36:51.435Z,62.5
2023-04-16T22:38:35.132Z,62.4
2023-04-16T22:40:18.901Z,62.4
2023-04-16T22:42:02.566Z,62.4
2023-04-16T22:43:46.258Z,62.3
2023-04-16T22:45:29.956Z,62.2
2023-04-16T22:47:13.678Z,62.2
2023-04-16T22:48:57.357Z,62.3
2023-04-16T22:50:41.144Z,62.4
2023-04-16T22:52:24.766Z,62.4
2023-04-16T22:55:52.170Z,62.4
2023-04-16T22:57:35.873Z,62.4
2023-04-16T22:59:19.573Z,62.4
2023-04-16T23:01:03.271Z,62.4
2023-04-16T23:02:46.975Z,62.4
2023-04-16T23:04:30.725Z,62.4
2023-04-16T23:06:14.392Z,62.4
2023-04-16T23:07:58.083Z,62.4
2023-04-16T23:09:41.787Z,62.4
2023-04-16T23:11:25.536Z,62.4
2023-04-16T23:13:09.190Z,62.4
2023-04-16T23:14:52.898Z,62.4
2023-04-16T23:16:36.645Z,62.4
2023-04-16T23:18:20.298Z,62.3
2023-04-16T23:20:03.997Z,62.3
2023-04-16T23:21:47.702Z,62.3
2023-04-16T23:23:31.402Z,62.3
2023-04-16T23:25:15.103Z,62.3
2023-04-16T23:26:58.815Z,62.3
2023-04-16T23:28:42.505Z,62.3
2023-04-16T23:30:26.218Z,62.3
2023-04-16T23:32:09.928Z,62.3
2023-04-16T23:33:53.613Z,62.3
2023-04-16T23:35:37.323Z,62.3
2023-04-16T23:37:21.025Z,62.3
2023-04-16T23:39:04.731Z,62.3
2023-04-16T23:40:48.436Z,62.3